createdAt,value
2022-08-17T00:00:49.460Z,25.69
2022-08-17T00:02:47.314Z,25.69
2022-08-17T00:04:50.445Z,25.70
2022-08-17T00:06:44.149Z,25.69
2022-08-17T00:22:56.067Z,25.61
2022-08-17T00:26:34.573Z,25.61
2022-08-17T00:27:51.167Z,25.62
2022-08-17T00:36:07.471Z,25.51
2022-08-17T00:37:36.431Z,25.54
2022-08-17T00:40:03.556Z,25.54
2022-08-17T00:45:24.706Z,25.52
2022-08-17T00:48:29.075Z,25.51
2022-08-17T00:49:50.738Z,25.52
2022-08-17T00:51:19.682Z,25.52
2022-08-17T00:53:18.002Z,25.51
2022-08-17T00:54:47.319Z,25.54
2022-08-17T00:57:15.342Z,25.46
2022-08-17T00:59:41.665Z,25.42
2022-08-17T01:01:39.737Z,25.38
2022-08-17T01:04:35.712Z,25.32
2022-08-17T01:06:33.735Z,25.27
2022-08-17T01:08:02.683Z,25.25
2022-08-17T01:11:01.791Z,25.20
2022-08-17T01:18:15.836Z,25.08
2022-08-17T01:24:06.002Z,25.00
2022-08-17T01:27:02.115Z,24.96
2022-08-17T01:32:52.293Z,24.93
2022-08-17T01:34:21.286Z,24.95
2022-08-17T01:36:19.727Z,24.95
2022-08-17T01:41:41.188Z,24.91
2022-08-17T01:45:35.340Z,24.84
2022-08-17T01:50:28.635Z,24.85
2022-08-17T02:05:01.304Z,24.77
2022-08-17T02:07:28.440Z,24.77
2022-08-17T02:09:55.848Z,24.71
2022-08-17T02:11:54.174Z,24.76
2022-08-17T02:14:26.793Z,24.68
2022-08-17T02:16:24.516Z,24.65
2022-08-17T02:22:14.903Z,24.61
2022-08-17T02:23:43.894Z,24.62
2022-08-17T02:25:41.984Z,24.58
2022-08-17T02:28:09.086Z,24.55
2022-08-17T02:35:56.465Z,24.47
2022-08-17T02:47:35.125Z,24.46
2022-08-17T02:54:39.984Z,24.39
2022-08-17T03:01:42.347Z,24.34
2022-08-17T03:04:09.359Z,24.34
2022-08-17T03:06:07.406Z,24.35
2022-08-17T03:09:43.403Z,24.39
2022-08-17T03:11:12.463Z,24.35
2022-08-17T03:19:29.615Z,24.22
2022-08-17T03:21:56.673Z,24.24
2022-08-17T03:23:55.335Z,24.21
2022-08-17T03:25:53.426Z,24.16
2022-08-17T03:27:21.753Z,24.16
2022-08-17T03:28:50.725Z,24.16
2022-08-17T03:30:21.195Z,24.13
2022-08-17T03:33:45.250Z,24.10
2022-08-17T03:35:13.900Z,24.10
2022-08-17T03:37:11.941Z,24.12
2022-08-17T03:41:34.972Z,24.08
2022-08-17T03:43:03.985Z,24.10
2022-08-17T03:45:02.559Z,24.09
2022-08-17T03:47:01.097Z,24.10
2022-08-17T03:48:59.130Z,24.10
2022-08-17T03:52:24.163Z,24.10
2022-08-17T03:59:22.255Z,24.06
2022-08-17T04:01:12.680Z,24.08
2022-08-17T04:04:08.743Z,24.02
2022-08-17T04:12:24.294Z,24.03
2022-08-17T04:14:52.945Z,24.05
2022-08-17T04:16:49.294Z,24.03
2022-08-17T04:25:04.781Z,23.94
2022-08-17T04:28:01.232Z,23.97
2022-08-17T04:30:28.421Z,24.00
2022-08-17T04:31:57.699Z,24.00
2022-08-17T04:33:55.696Z,23.98
2022-08-17T04:35:53.677Z,24.00
2022-08-17T04:39:47.771Z,23.95
2022-08-17T04:47:05.387Z,23.97
2022-08-17T04:50:59.621Z,23.94
2022-08-17T05:00:42.614Z,23.90
2022-08-17T05:05:34.795Z,23.91
2022-08-17T05:08:01.900Z,23.93
2022-08-17T05:09:31.190Z,23.94
2022-08-17T05:12:27.325Z,23.88
2022-08-17T05:14:32.930Z,23.90
2022-08-17T05:15:55.346Z,23.88
2022-08-17T05:17:24.332Z,23.88
2022-08-17T05:22:45.704Z,23.83
2022-08-17T05:25:41.882Z,23.83
2022-08-17T05:28:37.933Z,23.78
2022-08-17T05:33:01.211Z,23.80
2022-08-17T05:34:30.203Z,23.84
2022-08-17T05:37:26.179Z,23.84
2022-08-17T05:39:53.172Z,23.83
2022-08-17T05:41:51.123Z,23.84
2022-08-17T05:44:18.186Z,23.84
2022-08-17T05:46:45.198Z,23.85
2022-08-17T05:48:43.262Z,23.85
2022-08-17T05:50:41.586Z,23.84
2022-08-17T05:52:10.579Z,23.87
2022-08-17T05:54:37.667Z,23.88
2022-08-17T05:57:33.747Z,23.88
2022-08-17T05:59:03.010Z,23.87
2022-08-17T06:00:32.060Z,23.88
2022-08-17T06:02:01.015Z,23.90
2022-08-17T06:05:55.171Z,23.94
2022-08-17T06:09:49.293Z,23.91
2022-08-17T06:11:19.995Z,23.91
2022-08-17T06:12:47.236Z,23.93
2022-08-17T06:14:16.208Z,23.94
2022-08-17T06:15:45.194Z,23.94
2022-08-17T06:17:14.126Z,23.94
2022-08-17T06:18:43.144Z,23.94
2022-08-17T06:20:12.133Z,23.95
2022-08-17T06:22:10.990Z,24.00
2022-08-17T06:23:39.122Z,24.00
2022-08-17T06:25:10.286Z,24.03
2022-08-17T06:27:06.141Z,24.03
2022-08-17T06:29:04.165Z,23.97
2022-08-17T06:32:58.304Z,24.06
2022-08-17T06:35:28.894Z,24.10
2022-08-17T06:38:37.724Z,24.27
2022-08-17T06:39:52.717Z,24.35
2022-08-17T06:43:06.680Z,24.45
2022-08-17T06:48:40.532Z,24.57
2022-08-17T06:51:07.606Z,24.57
2022-08-17T06:52:45.471Z,24.61
2022-08-17T06:54:06.600Z,24.67
2022-08-17T06:56:52.931Z,24.76
2022-08-17T06:59:54.198Z,24.83
2022-08-17T07:01:59.256Z,24.88
2022-08-17T07:08:48.083Z,25.03
2022-08-17T07:10:17.073Z,25.06
2022-08-17T07:14:40.406Z,25.05
2022-08-17T07:16:38.466Z,25.10
2022-08-17T07:18:07.493Z,25.13
2022-08-17T07:20:05.514Z,25.15
2022-08-17T07:27:52.155Z,25.25
2022-08-17T07:29:20.937Z,25.28
2022-08-17T07:33:16.317Z,25.28
2022-08-17T07:40:16.065Z,25.35
2022-08-17T07:43:34.689Z,25.36
2022-08-17T07:45:03.704Z,25.40
2022-08-17T07:46:32.740Z,25.39
2022-08-17T07:50:04.391Z,25.36
2022-08-17T07:51:31.820Z,25.38
2022-08-17T07:53:29.923Z,25.35
2022-08-17T07:59:49.875Z,25.32
2022-08-17T08:01:48.002Z,25.33
2022-08-17T08:05:14.077Z,25.36
2022-08-17T08:06:44.060Z,25.40
2022-08-17T08:09:11.272Z,25.40
2022-08-17T08:10:45.035Z,25.38
2022-08-17T08:14:06.461Z,25.40
2022-08-17T08:16:33.543Z,25.40
2022-08-17T08:27:44.164Z,25.54
2022-08-17T08:31:09.295Z,25.57
2022-08-17T08:32:38.358Z,25.58
2022-08-17T08:35:34.453Z,25.67
2022-08-17T08:37:17.635Z,25.70
2022-08-17T08:39:02.879Z,25.75
2022-08-17T08:41:29.926Z,25.73
2022-08-17T08:42:58.937Z,25.76
2022-08-17T08:45:26.026Z,25.76
2022-08-17T08:50:31.801Z,25.77
2022-08-17T09:00:23.456Z,25.85
2022-08-17T09:02:50.454Z,25.91
2022-08-17T09:04:24.573Z,25.92
2022-08-17T09:07:45.663Z,25.95
2022-08-17T09:10:12.816Z,25.99
2022-08-17T09:12:10.786Z,26.01
2022-08-17T09:15:36.089Z,26.02
2022-08-17T09:19:01.293Z,26.06
2022-08-17T09:20:02.296Z,26.10
2022-08-17T09:23:56.617Z,26.06
2022-08-17T09:26:52.783Z,26.13
2022-08-17T09:28:51.237Z,26.15
2022-08-17T09:30:20.310Z,26.15
2022-08-17T09:31:49.701Z,26.15
2022-08-17T09:34:16.518Z,26.13
2022-08-17T09:36:43.604Z,26.15
2022-08-17T09:39:39.779Z,26.18
2022-08-17T09:41:08.692Z,26.18
2022-08-17T09:42:37.721Z,26.20
2022-08-17T09:44:35.902Z,26.21
2022-08-17T09:47:32.165Z,26.25
2022-08-17T09:49:30.248Z,26.29
2022-08-17T09:51:04.882Z,26.33
2022-08-17T09:54:41.494Z,26.40
2022-08-17T09:56:24.740Z,26.45
2022-08-17T09:57:53.624Z,26.47
2022-08-17T10:00:20.933Z,26.47
2022-08-17T10:01:49.952Z,26.48
2022-08-17T10:03:19.114Z,26.52
2022-08-17T10:08:40.703Z,26.52
2022-08-17T10:10:14.062Z,26.55
2022-08-17T10:13:35.540Z,26.57
2022-08-17T10:15:33.298Z,26.54
2022-08-17T10:19:57.493Z,26.50
2022-08-17T10:21:27.217Z,26.51
2022-08-17T10:24:13.504Z,26.52
2022-08-17T10:27:39.003Z,26.52
2022-08-17T10:30:35.441Z,26.51
2022-08-17T10:40:49.854Z,26.52
2022-08-17T10:44:38.799Z,26.51
2022-08-17T10:45:45.384Z,26.51
2022-08-17T10:47:55.134Z,26.51
2022-08-17T10:49:13.414Z,26.54
2022-08-17T10:51:11.429Z,26.52
2022-08-17T10:52:40.436Z,26.58
2022-08-17T10:55:36.611Z,26.58
2022-08-17T10:57:05.633Z,26.57
2022-08-17T10:58:34.592Z,26.58
2022-08-17T11:00:03.602Z,26.58
2022-08-17T11:04:56.193Z,26.60
2022-08-17T11:07:23.195Z,26.63
2022-08-17T11:08:52.174Z,26.63
2022-08-17T11:10:21.201Z,26.66
2022-08-17T11:11:50.132Z,26.66
2022-08-17T11:13:48.670Z,26.69
2022-08-17T11:15:47.659Z,26.70
2022-08-17T11:17:15.799Z,26.69
2022-08-17T11:21:39.677Z,26.75
2022-08-17T11:23:09.037Z,26.80
2022-08-17T11:25:07.515Z,26.82
2022-08-17T11:27:35.482Z,26.84
2022-08-17T11:29:03.768Z,26.85
2022-08-17T11:31:01.805Z,26.85
2022-08-17T11:33:29.195Z,26.87
2022-08-17T11:35:27.307Z,26.84
2022-08-17T11:37:25.488Z,26.81
2022-08-17T11:39:53.526Z,26.82
2022-08-17T11:41:51.563Z,26.85
2022-08-17T11:44:18.855Z,26.85
2022-08-17T11:47:15.023Z,26.87
2022-08-17T11:49:13.079Z,26.87
2022-08-17T11:51:11.521Z,26.89
2022-08-17T11:52:40.790Z,26.89
2022-08-17T11:54:32.167Z,26.89
2022-08-17T11:56:38.029Z,26.95
2022-08-17T12:03:28.295Z,26.89
2022-08-17T12:05:26.334Z,26.91
2022-08-17T12:08:52.208Z,26.94
2022-08-17T12:12:11.370Z,26.88
2022-08-17T12:13:18.487Z,26.92
2022-08-17T12:16:16.146Z,26.94
2022-08-17T12:18:14.204Z,26.91
2022-08-17T12:19:43.200Z,26.91
2022-08-17T12:21:41.186Z,26.88
2022-08-17T12:23:40.021Z,26.91
2022-08-17T12:25:08.996Z,26.89
2022-08-17T12:27:06.359Z,26.88
2022-08-17T12:29:38.301Z,26.82
2022-08-17T12:32:59.672Z,26.77
2022-08-17T12:36:54.314Z,26.75
2022-08-17T12:38:52.461Z,26.76
2022-08-17T12:42:17.522Z,26.73
2022-08-17T12:43:46.514Z,26.72
2022-08-17T12:46:42.625Z,26.70
2022-08-17T12:50:37.135Z,26.75
2022-08-17T12:52:06.507Z,26.75
2022-08-17T12:53:35.152Z,26.76
2022-08-17T12:56:31.393Z,26.72
2022-08-17T12:58:58.557Z,26.70
2022-08-17T13:01:26.103Z,26.72
2022-08-17T13:02:55.010Z,26.70
2022-08-17T13:04:24.424Z,26.69
2022-08-17T13:06:22.739Z,26.69
2022-08-17T13:08:20.740Z,26.70
2022-08-17T13:15:09.604Z,26.69
2022-08-17T13:18:05.830Z,26.72
2022-08-17T13:26:21.830Z,26.75
2022-08-17T13:31:14.401Z,26.76
2022-08-17T13:32:45.704Z,26.75
2022-08-17T13:34:12.405Z,26.80
2022-08-17T13:37:38.097Z,26.72
2022-08-17T13:40:45.998Z,26.65
2022-08-17T13:43:13.423Z,26.58
2022-08-17T13:44:42.638Z,26.57
2022-08-17T13:46:11.398Z,26.58
2022-08-17T13:47:40.412Z,26.57
2022-08-17T13:49:48.391Z,26.58
2022-08-17T13:53:33.984Z,26.51
2022-08-17T13:56:59.087Z,26.48
2022-08-17T13:58:57.951Z,26.47
2022-08-17T14:01:25.156Z,26.43
2022-08-17T14:03:44.406Z,26.43
2022-08-17T14:06:11.768Z,26.39
2022-08-17T14:08:40.142Z,26.40
2022-08-17T14:10:38.006Z,26.40
2022-08-17T14:15:55.601Z,26.26
2022-08-17T14:17:00.982Z,26.23
2022-08-17T14:20:26.072Z,26.23
2022-08-17T14:25:48.608Z,26.10
2022-08-17T14:27:53.269Z,26.10
2022-08-17T14:29:45.092Z,26.12
2022-08-17T14:33:39.938Z,26.05
2022-08-17T14:36:07.164Z,25.98
2022-08-17T14:38:05.369Z,25.95
2022-08-17T14:42:58.181Z,25.95
2022-08-17T14:44:27.179Z,25.97
2022-08-17T14:46:54.372Z,25.92
2022-08-17T14:48:57.159Z,25.94
2022-08-17T14:50:43.460Z,25.95
2022-08-17T14:52:30.485Z,25.95
2022-08-17T14:53:59.539Z,25.94
2022-08-17T14:56:04.595Z,25.92
2022-08-17T14:57:56.512Z,25.92
2022-08-17T14:59:26.369Z,25.97
2022-08-17T15:01:53.331Z,25.98
2022-08-17T15:03:41.527Z,25.97
2022-08-17T15:05:10.833Z,26.01
2022-08-17T15:06:41.405Z,26.01
2022-08-17T15:08:16.309Z,26.02
2022-08-17T15:10:03.438Z,26.06
2022-08-17T15:14:14.941Z,26.18
2022-08-17T15:17:03.976Z,26.17
2022-08-17T15:21:24.679Z,26.15
2022-08-17T15:23:58.302Z,26.12
2022-08-17T15:25:27.722Z,26.10
2022-08-17T15:27:32.425Z,26.12
2022-08-17T15:35:35.437Z,26.10
2022-08-17T15:37:54.476Z,26.12
2022-08-17T15:40:11.760Z,26.12
2022-08-17T15:42:39.445Z,26.12
2022-08-17T15:44:07.779Z,26.10
2022-08-17T15:45:37.578Z,26.13
2022-08-17T15:49:25.740Z,26.15
2022-08-17T15:52:41.238Z,26.12
2022-08-17T15:54:34.585Z,26.15
2022-08-17T15:56:02.311Z,26.17
2022-08-17T16:00:12.434Z,26.15
2022-08-17T16:04:01.602Z,26.17
2022-08-17T16:06:01.935Z,26.20
2022-08-17T16:09:00.705Z,26.10
2022-08-17T16:10:51.615Z,26.10
2022-08-17T16:13:54.875Z,26.12
2022-08-17T16:17:02.090Z,26.12
2022-08-17T16:19:49.169Z,26.10
2022-08-17T16:22:59.671Z,26.06
2022-08-17T16:24:57.508Z,26.09
2022-08-17T16:29:26.506Z,26.07
2022-08-17T16:33:36.771Z,26.07
2022-08-17T16:36:57.838Z,26.09
2022-08-17T16:38:55.800Z,26.09
2022-08-17T16:41:36.174Z,26.06
2022-08-17T16:45:27.734Z,26.02
2022-08-17T16:46:56.707Z,26.05
2022-08-17T16:49:35.921Z,26.05
2022-08-17T16:53:04.222Z,26.02
2022-08-17T16:57:10.127Z,26.02
2022-08-17T17:01:04.284Z,26.02
2022-08-17T17:02:44.224Z,26.02
2022-08-17T17:06:47.732Z,26.01
2022-08-17T17:08:08.497Z,26.01
2022-08-17T17:09:57.686Z,26.01
2022-08-17T17:13:03.268Z,25.99
2022-08-17T17:16:26.569Z,25.99
2022-08-17T17:18:19.184Z,25.98
2022-08-17T17:20:42.248Z,25.94
2022-08-17T17:23:09.507Z,25.91
2022-08-17T17:26:05.855Z,25.92
2022-08-17T17:29:47.427Z,25.87
2022-08-17T17:33:28.806Z,25.87
2022-08-17T17:35:55.958Z,25.87
2022-08-17T17:37:25.009Z,25.88
2022-08-17T17:44:38.359Z,25.79
2022-08-17T17:46:25.452Z,25.80
2022-08-17T17:48:08.577Z,25.80
2022-08-17T17:52:09.201Z,25.75
2022-08-17T17:54:32.948Z,25.73
2022-08-17T17:56:02.006Z,25.73
2022-08-17T17:58:58.112Z,25.67
2022-08-17T18:01:54.522Z,25.65
2022-08-17T18:03:52.503Z,25.65
2022-08-17T18:05:50.529Z,25.67
2022-08-17T18:07:19.515Z,25.62
2022-08-17T18:13:39.326Z,25.54
2022-08-17T18:20:43.194Z,25.52
2022-08-17T18:22:27.623Z,25.51
2022-08-17T18:23:56.553Z,25.51
2022-08-17T18:25:25.565Z,25.51
2022-08-17T18:27:23.591Z,25.47
2022-08-17T18:30:49.360Z,25.47
2022-08-17T18:32:18.409Z,25.47
2022-08-17T18:36:42.654Z,25.40
2022-08-17T18:38:13.696Z,25.40
2022-08-17T18:39:41.759Z,25.39
2022-08-17T18:41:11.038Z,25.39
2022-08-17T18:42:40.061Z,25.38
2022-08-17T18:45:07.149Z,25.35
2022-08-17T18:48:33.135Z,25.28
2022-08-17T18:50:02.011Z,25.27
2022-08-17T18:51:40.779Z,25.27
2022-08-17T18:53:30.332Z,25.25
2022-08-17T18:57:24.619Z,25.23
2022-08-17T18:59:22.705Z,25.23
2022-08-17T19:01:53.330Z,25.21
2022-08-17T19:05:44.262Z,25.17
2022-08-17T19:07:42.638Z,25.15
2022-08-17T19:10:09.700Z,25.13
2022-08-17T19:11:38.719Z,25.09
2022-08-17T19:13:12.724Z,25.09
2022-08-17T19:14:37.715Z,25.05
2022-08-17T19:20:57.130Z,24.96
2022-08-17T19:24:56.112Z,24.95
2022-08-17T19:28:22.261Z,24.96
2022-08-17T19:30:16.202Z,24.90
2022-08-17T19:35:37.475Z,24.83
2022-08-17T19:40:00.736Z,24.80
2022-08-17T19:47:30.780Z,24.69
2022-08-17T19:55:06.468Z,24.61
2022-08-17T19:56:35.456Z,24.58
2022-08-17T19:58:04.527Z,24.60
2022-08-17T19:59:35.784Z,24.60
2022-08-17T20:01:02.574Z,24.60
2022-08-17T20:02:31.583Z,24.60
2022-08-17T20:06:54.969Z,24.53
2022-08-17T20:20:31.085Z,24.43
2022-08-17T20:22:58.171Z,24.46
2022-08-17T20:25:54.234Z,24.45
2022-08-17T20:29:49.040Z,24.42
2022-08-17T20:31:17.374Z,24.45
2022-08-17T20:32:46.317Z,24.45
2022-08-17T20:38:37.129Z,24.39
2022-08-17T20:42:02.871Z,24.32
2022-08-17T20:48:37.304Z,24.27
2022-08-17T20:49:52.203Z,24.25
2022-08-17T20:54:44.624Z,24.21
2022-08-17T20:57:41.177Z,24.21
2022-08-17T20:59:10.156Z,24.21
2022-08-17T21:04:02.351Z,24.15
2022-08-17T21:09:23.467Z,24.12
2022-08-17T21:14:15.734Z,24.05
2022-08-17T21:15:44.723Z,24.05
2022-08-17T21:18:40.881Z,24.03
2022-08-17T21:21:07.962Z,24.00
2022-08-17T21:22:36.943Z,24.00
2022-08-17T21:24:35.002Z,24.00
2022-08-17T21:28:00.315Z,23.98
2022-08-17T21:29:31.447Z,23.97
2022-08-17T21:34:21.498Z,24.06
2022-08-17T21:36:19.533Z,24.08
2022-08-17T21:41:41.037Z,24.08
2022-08-17T21:57:41.136Z,24.10
2022-08-17T22:02:05.293Z,24.08
2022-08-17T22:04:32.335Z,24.06
2022-08-17T22:07:28.379Z,24.03
2022-08-17T22:09:55.466Z,24.02
2022-08-17T22:16:15.421Z,23.97
2022-08-17T22:23:33.271Z,23.87
2022-08-17T22:26:00.574Z,23.88
2022-08-17T22:29:25.863Z,23.80
2022-08-17T22:33:20.602Z,23.75
2022-08-17T22:39:11.632Z,23.73
2022-08-17T22:42:37.149Z,23.72
2022-08-17T22:46:31.314Z,23.72
2022-08-17T22:48:00.321Z,23.75
2022-08-17T23:04:30.011Z,23.63
2022-08-17T23:05:59.023Z,23.63
2022-08-17T23:08:26.066Z,23.63
2022-08-17T23:12:49.965Z,23.65
2022-08-17T23:18:11.772Z,23.70
2022-08-17T23:23:33.129Z,23.75
2022-08-17T23:26:00.176Z,23.73
2022-08-17T23:29:25.297Z,23.72
2022-08-17T23:32:53.550Z,23.66
2022-08-17T23:36:16.053Z,23.66
2022-08-17T23:38:14.098Z,23.66
2022-08-17T23:40:41.542Z,23.68
2022-08-17T23:42:43.381Z,23.68
2022-08-17T23:45:08.049Z,23.65
2022-08-17T23:50:01.921Z,23.61
2022-08-17T23:51:28.916Z,23.60
2022-08-17T23:56:50.327Z,23.58
2022-08-17T23:58:19.631Z,23.60
